Time;durP1;ratioP1;P1;durP2;ratioP2;P2;SDS_P1;SDS_P2;PMS_P1;PMS_P2;Temp;Humidity;BMP_temperature;BMP_pressure;BME280_temperature;BME280_humidity;BME280_pressure;Samples;Min_cycle;Max_cycle;Signal;HPM_P1;HPM_P2
2022/05/25 00:01:32;;;;;;;;;;;11.80;99.90;;;;;;4964352;28;39825;-47
2022/05/25 00:04:00;;;;;;;;;;;11.80;99.90;;;;;;5013698;28;37976;-47
2022/05/25 00:06:27;;;;;;;;;;;11.80;99.90;;;;;;5014546;28;36069;-47
2022/05/25 00:08:54;;;;;;;;;;;11.80;99.90;;;;;;5013351;28;37623;-47
2022/05/25 00:11:22;;;;;;;;;;;11.80;99.90;;;;;;5012874;28;38648;-47
2022/05/25 00:13:50;;;;;;;;;;;11.80;99.90;;;;;;5016384;28;39066;-48
2022/05/25 00:16:17;;;;;;;;;;;11.80;99.90;;;;;;5014192;28;36831;-51
2022/05/25 00:21:25;;;;;;;;;;;11.80;99.90;;;;;;5013899;28;39679;-47
2022/05/25 00:23:52;;;;;;;;;;;11.80;99.90;;;;;;5014389;28;38162;-48
2022/05/25 00:26:19;;;;;;;;;;;11.80;99.90;;;;;;5016164;28;35131;-50
2022/05/25 00:28:46;;;;;;;;;;;11.80;99.90;;;;;;5013751;28;37706;-47
2022/05/25 00:31:15;;;;;;;;;;;11.80;99.90;;;;;;5016405;28;37101;-48
2022/05/25 00:33:42;;;;;;;;;;;11.80;99.90;;;;;;5016565;28;36501;-51
2022/05/25 00:36:09;;;;;;;;;;;11.80;99.90;;;;;;5015360;28;36021;-47
2022/05/25 00:38:36;;;;;;;;;;;11.70;99.90;;;;;;5015734;28;36326;-51
2022/05/25 00:41:03;;;;;;;;;;;11.70;99.90;;;;;;5014326;28;38608;-47
2022/05/25 00:43:30;;;;;;;;;;;11.70;99.90;;;;;;5015733;28;38897;-49
2022/05/25 00:45:59;;;;;;;;;;;11.70;99.90;;;;;;5014123;28;38036;-48
2022/05/25 00:48:31;;;;;;;;;;;11.70;99.90;;;;;;5014682;28;37515;-48
2022/05/25 00:51:15;;;;;;;;;;;11.70;99.90;;;;;;5014951;28;39107;-48
2022/05/25 00:53:43;;;;;;;;;;;11.70;99.90;;;;;;5014906;28;36394;-51
2022/05/25 00:56:13;;;;;;;;;;;11.70;99.90;;;;;;5014302;28;35188;-49
2022/05/25 00:58:40;;;;;;;;;;;11.60;99.90;;;;;;5009607;28;37887;-48
2022/05/25 01:01:07;;;;;;;;;;;11.60;99.90;;;;;;4992995;28;39603;-49
2022/05/25 01:03:35;;;;;;;;;;;11.60;99.90;;;;;;4992404;28;38238;-48
2022/05/25 01:06:04;;;;;;;;;;;11.60;99.90;;;;;;4992032;28;38421;-47
2022/05/25 01:08:39;;;;;;;;;;;11.70;99.90;;;;;;4992887;28;38666;-48
2022/05/25 01:11:15;;;;;;;;;;;11.70;99.90;;;;;;4993143;28;38200;-49
2022/05/25 01:13:45;;;;;;;;;;;11.70;99.90;;;;;;4992524;28;37810;-49
2022/05/25 01:16:18;;;;;;;;;;;11.60;99.90;;;;;;4991967;28;36211;-50
2022/05/25 01:18:49;;;;;;;;;;;11.50;99.90;;;;;;4991625;28;39080;-57
2022/05/25 01:21:18;;;;;;;;;;;11.50;99.90;;;;;;4992036;28;37039;-57
2022/05/25 01:23:56;;;;;;;;;;;11.50;99.90;;;;;;4990547;28;38200;-56
2022/05/25 01:26:33;;;;;;;;;;;11.50;99.90;;;;;;4993101;28;36607;-56
2022/05/25 01:29:15;;;;;;;;;;;11.40;99.90;;;;;;4992158;28;38145;-57
2022/05/25 01:31:46;;;;;;;;;;;11.40;99.90;;;;;;4970985;28;40517;-56
2022/05/25 01:34:17;;;;;;;;;;;11.40;99.90;;;;;;4991409;28;38105;-56
2022/05/25 01:36:47;;;;;;;;;;;11.30;99.90;;;;;;4991538;28;36538;-56
2022/05/25 01:39:17;;;;;;;;;;;11.30;99.90;;;;;;4993720;28;41301;-56
2022/05/25 01:41:48;;;;;;;;;;;11.30;99.90;;;;;;4991639;28;39453;-56
2022/05/25 01:44:16;;;;;;;;;;;11.30;99.90;;;;;;4991681;28;37147;-57
2022/05/25 01:46:47;;;;;;;;;;;11.30;99.90;;;;;;4993298;28;35119;-57
2022/05/25 01:49:16;;;;;;;;;;;11.30;99.90;;;;;;4991840;28;37962;-57
2022/05/25 01:51:44;;;;;;;;;;;11.40;99.90;;;;;;4993557;28;38128;-56
2022/05/25 01:54:13;;;;;;;;;;;11.40;99.90;;;;;;4992163;28;37797;-56
2022/05/25 01:56:41;;;;;;;;;;;11.40;99.90;;;;;;4992531;28;35895;-56
2022/05/25 01:59:10;;;;;;;;;;;11.50;99.90;;;;;;4991865;28;36642;-56
2022/05/25 02:01:47;;;;;;;;;;;11.50;99.90;;;;;;4992597;28;36607;-57
2022/05/25 02:04:20;;;;;;;;;;;11.50;99.90;;;;;;4992482;28;38744;-56
2022/05/25 02:07:05;;;;;;;;;;;11.40;99.90;;;;;;4992420;28;36976;-57
2022/05/25 02:09:46;;;;;;;;;;;11.40;99.90;;;;;;4992469;28;40236;-57
2022/05/25 02:12:24;;;;;;;;;;;11.40;99.90;;;;;;4991454;28;38195;-57
2022/05/25 02:14:57;;;;;;;;;;;11.40;99.90;;;;;;4991603;28;36245;-57
2022/05/25 02:17:27;;;;;;;;;;;11.40;99.90;;;;;;4991082;28;37673;-56
2022/05/25 02:19:58;;;;;;;;;;;11.40;99.90;;;;;;4993263;28;40361;-57
2022/05/25 02:22:26;;;;;;;;;;;11.30;99.90;;;;;;4992712;28;38570;-56
2022/05/25 02:24:56;;;;;;;;;;;11.30;99.90;;;;;;4991666;28;37689;-57
2022/05/25 02:27:25;;;;;;;;;;;11.30;99.90;;;;;;4992443;28;36178;-56
2022/05/25 02:29:57;;;;;;;;;;;11.30;99.90;;;;;;4991247;28;39230;-57
2022/05/25 02:32:27;;;;;;;;;;;11.30;99.90;;;;;;4996524;28;38941;-56
2022/05/25 02:34:55;;;;;;;;;;;11.30;99.90;;;;;;4995514;28;37758;-57
2022/05/25 02:37:25;;;;;;;;;;;11.30;99.90;;;;;;4995617;28;37830;-57
2022/05/25 02:39:53;;;;;;;;;;;11.30;99.90;;;;;;4995610;28;37913;-56
2022/05/25 02:42:20;;;;;;;;;;;11.30;99.90;;;;;;4993617;28;39139;-56
2022/05/25 02:44:48;;;;;;;;;;;11.30;99.90;;;;;;4995789;28;38014;-57
2022/05/25 02:47:15;;;;;;;;;;;11.30;99.90;;;;;;4996107;28;35363;-57
2022/05/25 02:49:42;;;;;;;;;;;11.30;99.90;;;;;;4995435;28;35394;-57
2022/05/25 02:52:10;;;;;;;;;;;11.30;99.90;;;;;;4993985;28;39096;-57
2022/05/25 02:54:38;;;;;;;;;;;11.30;99.90;;;;;;4994806;28;37755;-56
2022/05/25 02:57:06;;;;;;;;;;;11.20;99.90;;;;;;4995948;28;36215;-57
2022/05/25 02:59:33;;;;;;;;;;;11.30;99.90;;;;;;4994752;28;39001;-57
2022/05/25 03:02:01;;;;;;;;;;;11.20;99.90;;;;;;4995693;28;38474;-57
2022/05/25 03:04:28;;;;;;;;;;;11.20;99.90;;;;;;4995538;28;37272;-57
2022/05/25 03:06:55;;;;;;;;;;;11.20;99.90;;;;;;4993484;28;35127;-56
2022/05/25 03:09:22;;;;;;;;;;;11.20;99.90;;;;;;4995661;28;37752;-56
2022/05/25 03:11:53;;;;;;;;;;;11.20;99.90;;;;;;4993677;28;37202;-56
2022/05/25 03:14:20;;;;;;;;;;;11.20;99.90;;;;;;4992624;28;37667;-57
2022/05/25 03:16:47;;;;;;;;;;;11.20;99.90;;;;;;4993675;28;37152;-57
2022/05/25 03:19:14;;;;;;;;;;;11.20;99.90;;;;;;4994891;28;37851;-56
2022/05/25 03:21:43;;;;;;;;;;;11.20;99.90;;;;;;4994299;28;39721;-57
2022/05/25 03:24:10;;;;;;;;;;;11.20;99.90;;;;;;4993640;28;37513;-57
2022/05/25 03:26:38;;;;;;;;;;;11.20;99.90;;;;;;4995369;28;35173;-56
2022/05/25 03:29:06;;;;;;;;;;;11.20;99.90;;;;;;4994219;28;39227;-56
2022/05/25 03:31:33;;;;;;;;;;;11.20;99.90;;;;;;4994169;28;38141;-57
2022/05/25 03:34:00;;;;;;;;;;;11.20;99.90;;;;;;4995287;28;39298;-56
2022/05/25 03:36:28;;;;;;;;;;;11.30;99.90;;;;;;4995040;28;36043;-57
2022/05/25 03:38:55;;;;;;;;;;;11.20;99.90;;;;;;4993094;28;39347;-57
2022/05/25 03:41:23;;;;;;;;;;;11.30;99.90;;;;;;4992700;28;38242;-57
2022/05/25 03:43:50;;;;;;;;;;;11.30;99.90;;;;;;4992640;28;37687;-56
2022/05/25 03:46:18;;;;;;;;;;;11.30;99.90;;;;;;4994916;28;35819;-57
2022/05/25 03:48:45;;;;;;;;;;;11.30;99.90;;;;;;4993892;28;37775;-56
2022/05/25 03:51:12;;;;;;;;;;;11.40;99.90;;;;;;4994839;28;37807;-57
2022/05/25 03:53:40;;;;;;;;;;;11.40;99.90;;;;;;4994089;28;37656;-56
2022/05/25 03:56:07;;;;;;;;;;;11.40;99.90;;;;;;4994050;28;37775;-57
2022/05/25 03:58:34;;;;;;;;;;;11.50;99.90;;;;;;4994451;28;36331;-47
2022/05/25 04:01:02;;;;;;;;;;;11.50;99.90;;;;;;4994276;28;39420;-48
2022/05/25 04:03:31;;;;;;;;;;;11.50;99.90;;;;;;4994827;28;38719;-57
2022/05/25 04:05:58;;;;;;;;;;;11.60;99.90;;;;;;4995212;28;35039;-56
2022/05/25 04:08:25;;;;;;;;;;;11.60;99.90;;;;;;4994013;28;37876;-56
2022/05/25 04:10:52;;;;;;;;;;;11.70;99.90;;;;;;4994648;28;37001;-57
2022/05/25 04:13:21;;;;;;;;;;;11.70;99.90;;;;;;4994546;28;37238;-57
2022/05/25 04:15:48;;;;;;;;;;;11.80;99.90;;;;;;4994373;28;35919;-57
2022/05/25 04:18:16;;;;;;;;;;;11.80;99.90;;;;;;4995366;28;38950;-56
2022/05/25 04:20:44;;;;;;;;;;;11.90;99.90;;;;;;4994064;28;39280;-48
2022/05/25 04:23:11;;;;;;;;;;;12.00;99.90;;;;;;4993147;28;37391;-50
2022/05/25 04:25:40;;;;;;;;;;;12.10;99.90;;;;;;4994598;28;37076;-47
2022/05/25 04:28:07;;;;;;;;;;;12.10;99.90;;;;;;4993435;28;37893;-51
2022/05/25 04:30:34;;;;;;;;;;;12.20;99.90;;;;;;4994487;28;37025;-50
2022/05/25 04:33:01;;;;;;;;;;;12.40;99.90;;;;;;4992938;28;39388;-48
2022/05/25 04:35:29;;;;;;;;;;;12.50;99.90;;;;;;4993360;28;36409;-51
2022/05/25 04:37:57;;;;;;;;;;;12.60;99.90;;;;;;4993402;28;39446;-48
2022/05/25 04:40:26;;;;;;;;;;;12.70;99.90;;;;;;4993302;28;37000;-50
2022/05/25 04:42:54;;;;;;;;;;;12.70;99.90;;;;;;4994893;28;36257;-51
2022/05/25 04:45:22;;;;;;;;;;;12.80;99.90;;;;;;4994471;28;34925;-50
2022/05/25 04:47:49;;;;;;;;;;;12.90;99.90;;;;;;4992714;28;38489;-49
2022/05/25 04:50:17;;;;;;;;;;;13.00;99.90;;;;;;4993382;28;39849;-49
2022/05/25 04:52:44;;;;;;;;;;;13.10;99.90;;;;;;4994041;28;38253;-57
2022/05/25 04:57:19;;;;;;;;;;;13.20;99.90;;;;;;4993814;28;40648;-56
2022/05/25 04:57:59;;;;;;;;;;;13.30;99.90;;;;;;4993263;28;40756;-56
2022/05/25 05:00:27;;;;;;;;;;;13.40;99.90;;;;;;4992309;28;41462;-56
2022/05/25 05:02:54;;;;;;;;;;;13.50;99.90;;;;;;4992276;28;37775;-57
2022/05/25 05:05:21;;;;;;;;;;;13.50;99.90;;;;;;4993910;28;36503;-57
2022/05/25 05:07:48;;;;;;;;;;;13.60;99.90;;;;;;4991124;28;38326;-57
2022/05/25 05:10:17;;;;;;;;;;;13.70;99.90;;;;;;4991454;28;37247;-56
2022/05/25 05:12:44;;;;;;;;;;;13.80;99.90;;;;;;4992766;28;36210;-57
2022/05/25 05:15:11;;;;;;;;;;;13.90;99.90;;;;;;4991829;28;36715;-55
2022/05/25 05:17:38;;;;;;;;;;;13.90;99.90;;;;;;4992899;28;38464;-56
2022/05/25 05:20:06;;;;;;;;;;;14.00;99.90;;;;;;4993459;28;37894;-56
2022/05/25 05:22:34;;;;;;;;;;;14.10;99.90;;;;;;4993292;28;37511;-55
2022/05/25 05:25:01;;;;;;;;;;;14.30;99.90;;;;;;4993267;28;36191;-56
2022/05/25 05:27:29;;;;;;;;;;;14.40;99.90;;;;;;4993997;28;37531;-56
2022/05/25 05:29:59;;;;;;;;;;;14.50;99.90;;;;;;4992607;28;37751;-56
2022/05/25 05:32:27;;;;;;;;;;;14.60;99.90;;;;;;4993448;28;37320;-56
2022/05/25 05:34:54;;;;;;;;;;;14.70;99.90;;;;;;4994531;28;34970;-56
2022/05/25 05:37:24;;;;;;;;;;;14.70;99.90;;;;;;4993558;28;37999;-56
2022/05/25 05:39:55;;;;;;;;;;;14.80;99.90;;;;;;4992623;28;39471;-56
2022/05/25 05:42:23;;;;;;;;;;;14.80;99.90;;;;;;4992608;28;37672;-56
2022/05/25 05:44:54;;;;;;;;;;;15.00;99.90;;;;;;4992716;28;35826;-56
2022/05/25 05:47:23;;;;;;;;;;;15.10;99.90;;;;;;4993853;28;37697;-57
2022/05/25 05:49:50;;;;;;;;;;;15.20;99.90;;;;;;4993116;28;38315;-57
2022/05/25 05:52:17;;;;;;;;;;;15.30;99.90;;;;;;4992982;28;38150;-56
2022/05/25 05:54:44;;;;;;;;;;;15.30;99.90;;;;;;4992964;28;38418;-57
2022/05/25 05:57:12;;;;;;;;;;;15.40;99.90;;;;;;4992911;28;38009;-56
2022/05/25 05:59:39;;;;;;;;;;;15.50;99.90;;;;;;4993042;28;39883;-57
2022/05/25 06:02:08;;;;;;;;;;;15.60;99.90;;;;;;4992196;28;37510;-56
2022/05/25 06:04:35;;;;;;;;;;;15.70;99.90;;;;;;4992620;28;37554;-56
2022/05/25 06:07:03;;;;;;;;;;;15.80;99.90;;;;;;4992818;28;39481;-56
2022/05/25 06:09:30;;;;;;;;;;;15.80;99.90;;;;;;4992337;28;37040;-57
2022/05/25 06:11:57;;;;;;;;;;;16.00;99.90;;;;;;4992630;28;42068;-56
2022/05/25 06:14:24;;;;;;;;;;;16.00;99.90;;;;;;4991905;28;36509;-57
2022/05/25 06:19:38;;;;;;;;;;;16.20;99.90;;;;;;4991691;28;39302;-56
2022/05/25 06:22:07;;;;;;;;;;;16.30;99.90;;;;;;4990662;28;36241;-55
2022/05/25 06:24:36;;;;;;;;;;;16.40;99.90;;;;;;4987879;28;37528;-55
2022/05/25 06:27:04;;;;;;;;;;;16.40;99.90;;;;;;4989475;28;37805;-56
2022/05/25 06:29:31;;;;;;;;;;;16.50;99.90;;;;;;4991316;28;39288;-55
2022/05/25 06:31:58;;;;;;;;;;;16.60;99.90;;;;;;4989466;28;39114;-56
2022/05/25 06:34:25;;;;;;;;;;;16.80;99.90;;;;;;4989511;28;38368;-55
2022/05/25 06:36:53;;;;;;;;;;;16.90;99.90;;;;;;4989082;28;37490;-56
2022/05/25 06:39:20;;;;;;;;;;;16.90;99.90;;;;;;4992755;28;38264;-55
2022/05/25 06:41:47;;;;;;;;;;;17.00;99.90;;;;;;4993136;28;37335;-55
2022/05/25 06:44:15;;;;;;;;;;;17.00;99.90;;;;;;4991724;28;35850;-55
2022/05/25 06:46:42;;;;;;;;;;;17.00;99.90;;;;;;4993135;28;38907;-56
2022/05/25 06:49:09;;;;;;;;;;;17.00;99.90;;;;;;4993683;28;37142;-56
2022/05/25 06:51:37;;;;;;;;;;;17.10;99.90;;;;;;4995129;28;37803;-56
2022/05/25 06:54:06;;;;;;;;;;;17.10;99.90;;;;;;4988269;28;36823;-56
2022/05/25 06:56:33;;;;;;;;;;;17.10;99.90;;;;;;4991149;28;37241;-55
2022/05/25 06:59:00;;;;;;;;;;;17.20;99.90;;;;;;4990986;28;39798;-56
2022/05/25 07:01:27;;;;;;;;;;;17.30;99.90;;;;;;4991224;28;40545;-56
2022/05/25 07:03:55;;;;;;;;;;;17.30;99.90;;;;;;4991843;28;37063;-56
2022/05/25 07:06:22;;;;;;;;;;;17.40;99.90;;;;;;4992300;28;38676;-55
2022/05/25 07:08:49;;;;;;;;;;;17.40;99.80;;;;;;4991351;28;39365;-56
2022/05/25 07:11:18;;;;;;;;;;;17.50;99.90;;;;;;4991315;28;36529;-56
2022/05/25 07:13:45;;;;;;;;;;;17.60;99.70;;;;;;4991979;28;36801;-56
2022/05/25 07:16:14;;;;;;;;;;;17.70;99.70;;;;;;4992404;28;38091;-56
2022/05/25 07:18:41;;;;;;;;;;;17.70;99.70;;;;;;4994503;28;40094;-56
2022/05/25 07:21:09;;;;;;;;;;;17.70;99.60;;;;;;4995569;28;39884;-56
2022/05/25 07:23:37;;;;;;;;;;;17.70;99.90;;;;;;4994670;28;36950;-56
2022/05/25 07:26:06;;;;;;;;;;;17.70;99.60;;;;;;4995346;28;37474;-56
2022/05/25 07:28:35;;;;;;;;;;;17.80;99.30;;;;;;4994714;28;39862;-56
2022/05/25 07:31:03;;;;;;;;;;;17.90;99.40;;;;;;4994475;28;37535;-56
2022/05/25 07:33:31;;;;;;;;;;;17.90;99.60;;;;;;4997040;28;36659;-56
2022/05/25 07:35:58;;;;;;;;;;;18.00;99.30;;;;;;4996326;28;37485;-56
2022/05/25 07:38:26;;;;;;;;;;;18.00;98.00;;;;;;4992323;28;38267;-56
2022/05/25 07:40:53;;;;;;;;;;;18.00;98.70;;;;;;4994022;28;37331;-57
2022/05/25 07:43:20;;;;;;;;;;;18.10;98.20;;;;;;4997309;28;36379;-56
2022/05/25 07:45:49;;;;;;;;;;;18.10;98.30;;;;;;4994998;28;39214;-56
2022/05/25 07:48:16;;;;;;;;;;;18.20;98.30;;;;;;4995466;28;39401;-56
2022/05/25 07:50:44;;;;;;;;;;;18.20;97.90;;;;;;4996207;28;36201;-56
2022/05/25 07:55:53;;;;;;;;;;;18.20;97.80;;;;;;4995846;28;38351;-56
2022/05/25 07:58:20;;;;;;;;;;;18.10;97.90;;;;;;4996359;28;38774;-56
2022/05/25 08:00:49;;;;;;;;;;;18.00;97.10;;;;;;5016034;28;38199;-56
2022/05/25 08:06:00;;;;;;;;;;;18.10;98.20;;;;;;5016735;28;38977;-57
2022/05/25 08:08:27;;;;;;;;;;;18.20;97.50;;;;;;5016313;28;36930;-56
2022/05/25 08:10:55;;;;;;;;;;;18.40;97.60;;;;;;5016270;28;38168;-56
2022/05/25 08:13:23;;;;;;;;;;;18.40;96.50;;;;;;5016902;28;37266;-56
2022/05/25 08:15:51;;;;;;;;;;;18.40;95.50;;;;;;5016180;28;37552;-57
2022/05/25 08:18:20;;;;;;;;;;;18.30;95.70;;;;;;5016978;28;38996;-56
2022/05/25 08:20:47;;;;;;;;;;;18.20;95.30;;;;;;5016775;28;36263;-57
2022/05/25 08:23:15;;;;;;;;;;;18.00;95.20;;;;;;5017189;28;37953;-56
2022/05/25 08:25:43;;;;;;;;;;;17.90;96.50;;;;;;5016628;28;37448;-56
2022/05/25 08:28:10;;;;;;;;;;;17.80;96.60;;;;;;5016184;28;39238;-56
2022/05/25 08:30:38;;;;;;;;;;;17.90;97.10;;;;;;5016492;28;37496;-56
2022/05/25 08:33:07;;;;;;;;;;;18.00;97.30;;;;;;5016325;28;35541;-57
2022/05/25 08:35:34;;;;;;;;;;;18.10;97.30;;;;;;5016568;28;38379;-57
2022/05/25 08:38:01;;;;;;;;;;;18.20;97.30;;;;;;5016632;28;39404;-57
2022/05/25 08:40:29;;;;;;;;;;;18.30;96.70;;;;;;5016017;28;38311;-56
2022/05/25 08:42:59;;;;;;;;;;;18.40;96.40;;;;;;5015640;28;38791;-56
2022/05/25 08:45:28;;;;;;;;;;;18.50;95.90;;;;;;5016781;28;36539;-57
2022/05/25 08:47:57;;;;;;;;;;;18.60;95.70;;;;;;5016035;28;38248;-57
2022/05/25 08:50:25;;;;;;;;;;;18.60;95.70;;;;;;5016004;28;38795;-56
2022/05/25 08:52:56;;;;;;;;;;;18.60;95.20;;;;;;5016346;28;35772;-57
2022/05/25 08:55:28;;;;;;;;;;;18.70;95.30;;;;;;5016729;28;36586;-57
2022/05/25 08:57:57;;;;;;;;;;;18.80;95.10;;;;;;5015684;28;38563;-56
2022/05/25 09:00:24;;;;;;;;;;;18.90;95.20;;;;;;4998797;28;37157;-57
2022/05/25 09:02:55;;;;;;;;;;;18.90;93.90;;;;;;4995900;28;36206;-56
2022/05/25 09:05:25;;;;;;;;;;;18.80;92.30;;;;;;4995566;28;37047;-56
2022/05/25 09:07:58;;;;;;;;;;;18.70;92.90;;;;;;4995443;28;38177;-56
2022/05/25 09:10:28;;;;;;;;;;;18.60;94.10;;;;;;4995856;28;36132;-56
2022/05/25 09:12:58;;;;;;;;;;;18.50;93.80;;;;;;4995857;28;37436;-56
2022/05/25 09:15:27;;;;;;;;;;;18.40;95.30;;;;;;4997439;28;37004;-56
2022/05/25 09:17:55;;;;;;;;;;;18.40;95.10;;;;;;4995213;28;37243;-56
2022/05/25 09:20:24;;;;;;;;;;;18.40;94.00;;;;;;4994726;28;36328;-56
2022/05/25 09:22:52;;;;;;;;;;;18.40;94.80;;;;;;4996095;28;36694;-56
2022/05/25 09:25:21;;;;;;;;;;;18.40;95.10;;;;;;4995063;28;37999;-56
2022/05/25 09:27:53;;;;;;;;;;;18.50;95.80;;;;;;4994325;28;39945;-57
2022/05/25 09:30:20;;;;;;;;;;;18.50;94.70;;;;;;4995574;28;36290;-57
2022/05/25 09:32:50;;;;;;;;;;;18.50;94.70;;;;;;4995577;28;36204;-57
2022/05/25 09:35:19;;;;;;;;;;;18.50;94.90;;;;;;4994903;28;38244;-56
2022/05/25 09:37:50;;;;;;;;;;;18.50;94.00;;;;;;4994829;28;38141;-57
2022/05/25 09:40:22;;;;;;;;;;;18.30;93.50;;;;;;4994813;28;38211;-57
2022/05/25 09:42:50;;;;;;;;;;;18.20;93.90;;;;;;4994800;28;37856;-56
2022/05/25 09:45:18;;;;;;;;;;;18.00;94.20;;;;;;4995481;28;38329;-56
2022/05/25 09:47:46;;;;;;;;;;;17.90;95.40;;;;;;4994293;28;36958;-56
2022/05/25 09:50:25;;;;;;;;;;;17.90;95.50;;;;;;4994635;28;39064;-56
2022/05/25 09:52:53;;;;;;;;;;;17.90;95.30;;;;;;4994766;28;37106;-56
2022/05/25 09:55:25;;;;;;;;;;;17.90;95.00;;;;;;4995734;28;38226;-56
2022/05/25 09:57:54;;;;;;;;;;;18.00;95.50;;;;;;4994477;28;38534;-56
2022/05/25 10:00:23;;;;;;;;;;;18.00;95.20;;;;;;4995229;28;39879;-56
2022/05/25 10:02:51;;;;;;;;;;;18.10;95.60;;;;;;4993062;28;36732;-56
2022/05/25 10:05:23;;;;;;;;;;;18.30;95.70;;;;;;4993024;28;37613;-56
2022/05/25 10:07:52;;;;;;;;;;;18.50;95.60;;;;;;4992169;28;39565;-56
2022/05/25 10:10:26;;;;;;;;;;;18.50;94.70;;;;;;4994435;28;36249;-55
2022/05/25 10:13:04;;;;;;;;;;;18.50;93.70;;;;;;4994494;28;37167;-56
2022/05/25 10:15:33;;;;;;;;;;;18.40;93.70;;;;;;4993182;28;37244;-56
2022/05/25 10:18:00;;;;;;;;;;;18.20;93.60;;;;;;4994383;28;40632;-56
2022/05/25 10:20:28;;;;;;;;;;;18.00;93.70;;;;;;4993369;28;36521;-56
2022/05/25 10:23:01;;;;;;;;;;;17.80;93.60;;;;;;4992759;28;36761;-55
2022/05/25 10:25:34;;;;;;;;;;;17.70;93.70;;;;;;4994543;28;36511;-56
2022/05/25 10:28:10;;;;;;;;;;;17.60;94.90;;;;;;4993216;28;38422;-56
2022/05/25 10:39:15;;;;;;;;;;;17.60;95.60;;;;;;4992827;28;41484;-56
2022/05/25 10:41:45;;;;;;;;;;;17.50;95.60;;;;;;4993451;28;37371;-56
2022/05/25 10:44:16;;;;;;;;;;;17.40;94.40;;;;;;4993579;28;36435;-56
2022/05/25 10:46:49;;;;;;;;;;;17.40;95.30;;;;;;4992215;28;37650;-56
2022/05/25 10:49:19;;;;;;;;;;;17.30;94.90;;;;;;4993067;28;39019;-55
2022/05/25 10:51:50;;;;;;;;;;;17.20;95.60;;;;;;4996886;28;38110;-56
2022/05/25 10:57:17;;;;;;;;;;;17.10;95.00;;;;;;4997553;28;39718;-56
2022/05/25 10:59:48;;;;;;;;;;;17.00;95.60;;;;;;4996579;28;39216;-56
2022/05/25 11:02:23;;;;;;;;;;;16.90;99.60;;;;;;4995302;28;38355;-55
2022/05/25 11:05:00;;;;;;;;;;;16.50;97.30;;;;;;4997305;28;36447;-55
2022/05/25 11:07:30;;;;;;;;;;;16.20;99.10;;;;;;4997411;28;37052;-55
2022/05/25 11:10:17;;;;;;;;;;;15.80;99.90;;;;;;4996836;28;38623;-55
2022/05/25 11:12:54;;;;;;;;;;;15.60;99.90;;;;;;4995766;28;37484;-55
2022/05/25 11:15:25;;;;;;;;;;;15.30;99.90;;;;;;4995904;28;35237;-55
2022/05/25 11:17:59;;;;;;;;;;;15.20;99.90;;;;;;4996680;28;37146;-55
2022/05/25 11:20:28;;;;;;;;;;;15.20;99.90;;;;;;4997212;28;37103;-54
2022/05/25 11:23:14;;;;;;;;;;;15.30;99.90;;;;;;4996763;28;39207;-54
2022/05/25 11:25:58;;;;;;;;;;;15.60;99.90;;;;;;4996280;28;37593;-55
2022/05/25 11:28:35;;;;;;;;;;;15.90;99.90;;;;;;4996977;28;37753;-55
2022/05/25 11:31:11;;;;;;;;;;;16.10;99.90;;;;;;4996703;28;38465;-55
2022/05/25 11:33:44;;;;;;;;;;;16.30;99.90;;;;;;4997235;28;40337;-55
2022/05/25 11:36:16;;;;;;;;;;;16.20;99.90;;;;;;4995258;28;35384;-55
2022/05/25 11:38:51;;;;;;;;;;;16.20;99.90;;;;;;4997298;28;38992;-55
2022/05/25 11:41:24;;;;;;;;;;;16.20;99.90;;;;;;4996841;28;38084;-55
2022/05/25 11:44:00;;;;;;;;;;;16.40;99.90;;;;;;4997490;28;36246;-55
2022/05/25 11:46:34;;;;;;;;;;;16.50;99.90;;;;;;4995086;28;37081;-55
2022/05/25 11:49:31;;;;;;;;;;;16.60;99.90;;;;;;4994007;28;38153;-55
2022/05/25 11:52:03;;;;;;;;;;;16.70;99.90;;;;;;4997435;28;38403;-55
2022/05/25 11:54:38;;;;;;;;;;;16.70;99.90;;;;;;4996602;28;37784;-55
2022/05/25 11:57:09;;;;;;;;;;;16.60;99.90;;;;;;4997303;28;35653;-55
2022/05/25 11:59:46;;;;;;;;;;;16.60;99.90;;;;;;4997263;28;38708;-54
2022/05/25 12:02:18;;;;;;;;;;;16.50;99.90;;;;;;4995875;28;39612;-55
2022/05/25 12:04:53;;;;;;;;;;;16.50;99.90;;;;;;4997834;28;39487;-55
2022/05/25 12:07:28;;;;;;;;;;;16.40;99.90;;;;;;4997459;28;36551;-55
2022/05/25 12:10:16;;;;;;;;;;;16.40;99.90;;;;;;4996947;28;38035;-56
2022/05/25 12:12:47;;;;;;;;;;;16.40;99.90;;;;;;4972886;28;38361;-56
2022/05/25 12:15:19;;;;;;;;;;;16.50;99.90;;;;;;4996488;28;37454;-55
2022/05/25 12:17:54;;;;;;;;;;;16.60;99.90;;;;;;4996116;28;37437;-55
2022/05/25 12:20:27;;;;;;;;;;;16.60;99.90;;;;;;4994455;28;38261;-55
2022/05/25 12:22:55;;;;;;;;;;;16.60;99.90;;;;;;4996031;28;37136;-55
2022/05/25 12:25:23;;;;;;;;;;;16.60;99.90;;;;;;4997357;28;36135;-55
2022/05/25 12:27:52;;;;;;;;;;;16.50;99.90;;;;;;4994063;28;36460;-56
2022/05/25 12:30:23;;;;;;;;;;;16.60;99.90;;;;;;4994158;28;36389;-56
2022/05/25 12:32:51;;;;;;;;;;;16.60;99.90;;;;;;4996216;28;38041;-54
2022/05/25 12:35:19;;;;;;;;;;;16.60;99.90;;;;;;4994337;28;38497;-57
2022/05/25 12:37:47;;;;;;;;;;;16.60;99.90;;;;;;4994378;28;36523;-56
2022/05/25 12:40:34;;;;;;;;;;;16.60;99.00;;;;;;4994579;28;38278;-56
2022/05/25 12:43:01;;;;;;;;;;;16.70;98.90;;;;;;4994515;28;41214;-56
2022/05/25 12:48:40;;;;;;;;;;;16.90;98.00;;;;;;4994440;28;37300;-56
2022/05/25 12:51:09;;;;;;;;;;;17.00;96.90;;;;;;4994393;28;38255;-56
2022/05/25 12:53:37;;;;;;;;;;;17.00;96.20;;;;;;4991615;28;39519;-56
2022/05/25 12:56:06;;;;;;;;;;;17.00;96.20;;;;;;4992386;28;38495;-56
2022/05/25 12:58:43;;;;;;;;;;;17.10;95.40;;;;;;4989682;28;37798;-56
2022/05/25 13:01:26;;;;;;;;;;;17.20;95.10;;;;;;4991072;28;38194;-56
2022/05/25 13:04:14;;;;;;;;;;;17.20;94.50;;;;;;4991614;28;38524;-56
2022/05/25 13:07:00;;;;;;;;;;;17.30;94.30;;;;;;4992951;28;38126;-56
2022/05/25 13:09:34;;;;;;;;;;;17.40;93.70;;;;;;4992787;28;36490;-56
2022/05/25 13:12:15;;;;;;;;;;;17.40;93.00;;;;;;4993343;28;37855;-56
2022/05/25 13:14:53;;;;;;;;;;;17.40;92.60;;;;;;4994348;28;38149;-56
2022/05/25 13:17:39;;;;;;;;;;;17.40;92.40;;;;;;4995396;28;39592;-56
2022/05/25 13:20:13;;;;;;;;;;;17.40;91.80;;;;;;4994711;28;36900;-56
2022/05/25 13:22:41;;;;;;;;;;;17.40;91.10;;;;;;4995584;28;38238;-56
2022/05/25 13:25:11;;;;;;;;;;;17.40;88.50;;;;;;4996257;28;38277;-56
2022/05/25 13:27:53;;;;;;;;;;;17.30;90.00;;;;;;4995698;28;37658;-56
2022/05/25 13:30:28;;;;;;;;;;;17.30;90.40;;;;;;4994536;28;36251;-56
2022/05/25 13:32:57;;;;;;;;;;;17.20;88.90;;;;;;4994668;28;39510;-57
2022/05/25 13:35:40;;;;;;;;;;;17.20;90.00;;;;;;4994765;28;40808;-57
2022/05/25 13:38:10;;;;;;;;;;;17.20;88.70;;;;;;4993782;28;37830;-56
2022/05/25 13:40:39;;;;;;;;;;;17.10;89.70;;;;;;4994048;28;36212;-56
2022/05/25 13:43:09;;;;;;;;;;;17.10;91.00;;;;;;4995101;28;37595;-57
2022/05/25 13:45:42;;;;;;;;;;;17.10;90.40;;;;;;4993019;28;38912;-56
2022/05/25 13:48:11;;;;;;;;;;;17.10;90.50;;;;;;4992653;28;37137;-57
2022/05/25 13:50:41;;;;;;;;;;;17.10;92.10;;;;;;4993169;28;37028;-56
2022/05/25 13:53:10;;;;;;;;;;;17.10;92.00;;;;;;4993543;28;37587;-56
2022/05/25 13:55:39;;;;;;;;;;;17.10;91.40;;;;;;4992720;28;40354;-56
2022/05/25 13:58:09;;;;;;;;;;;17.10;92.30;;;;;;4992293;28;36906;-56
2022/05/25 14:00:41;;;;;;;;;;;17.20;91.80;;;;;;4995287;28;36883;-56
2022/05/25 14:03:20;;;;;;;;;;;17.20;91.00;;;;;;4993115;28;37645;-56
2022/05/25 14:05:51;;;;;;;;;;;17.20;91.30;;;;;;4993824;28;38541;-57
2022/05/25 14:08:20;;;;;;;;;;;17.20;91.70;;;;;;4995654;28;36159;-56
2022/05/25 14:10:54;;;;;;;;;;;17.20;91.60;;;;;;4994417;28;34471;-56
2022/05/25 14:13:23;;;;;;;;;;;17.20;90.00;;;;;;4994520;28;39630;-56
2022/05/25 14:15:54;;;;;;;;;;;17.20;90.20;;;;;;4994506;28;37209;-56
2022/05/25 14:18:21;;;;;;;;;;;17.20;91.40;;;;;;4994246;28;37393;-57
2022/05/25 14:20:50;;;;;;;;;;;17.20;91.50;;;;;;4994787;28;36191;-56
2022/05/25 14:23:18;;;;;;;;;;;17.20;91.00;;;;;;4993625;28;37511;-56
2022/05/25 14:25:45;;;;;;;;;;;17.20;91.90;;;;;;4994770;28;40305;-56
2022/05/25 14:28:13;;;;;;;;;;;17.20;91.40;;;;;;4998380;28;37634;-56
2022/05/25 14:30:41;;;;;;;;;;;17.20;91.30;;;;;;4997906;28;36386;-56
2022/05/25 14:33:09;;;;;;;;;;;17.20;91.40;;;;;;4997928;28;39288;-56
2022/05/25 14:35:38;;;;;;;;;;;17.20;92.00;;;;;;4998353;28;39902;-56
2022/05/25 14:38:08;;;;;;;;;;;17.20;90.50;;;;;;4999050;28;37656;-55
2022/05/25 14:40:45;;;;;;;;;;;17.20;92.00;;;;;;4996076;28;35048;-56
2022/05/25 14:43:12;;;;;;;;;;;17.20;91.30;;;;;;4998007;28;37256;-56
2022/05/25 14:45:40;;;;;;;;;;;17.30;91.60;;;;;;4998062;28;38947;-57
2022/05/25 14:48:09;;;;;;;;;;;17.30;91.60;;;;;;4997248;28;39988;-57
2022/05/25 14:50:37;;;;;;;;;;;17.30;91.10;;;;;;4996858;28;36421;-57
2022/05/25 14:53:05;;;;;;;;;;;17.30;90.80;;;;;;4997094;28;37671;-58
2022/05/25 14:55:34;;;;;;;;;;;17.30;88.60;;;;;;4998753;28;38823;-57
2022/05/25 14:58:05;;;;;;;;;;;17.20;90.00;;;;;;4999219;28;38921;-57